Time;durP1;ratioP1;P1;durP2;ratioP2;P2;SDS_P1;SDS_P2;PMS_P1;PMS_P2;Temp;Humidity;BMP_temperature;BMP_pressure;BME280_temperature;BME280_humidity;BME280_pressure;Samples;Min_cycle;Max_cycle;Signal;HPM_P1;HPM_P2
2024/04/01 00:00:35;;;;;;;6.75;3.47;;;;;;;;;;4998053;28;20041;-78
2024/04/01 00:03:01;;;;;;;10.45;3.58;;;;;;;;;;4998243;28;20453;-77
2024/04/01 00:05:26;;;;;;;10.40;3.60;;;;;;;;;;5013958;28;20061;-78
2024/04/01 00:07:52;;;;;;;7.10;2.97;;;;;;;;;;5014363;28;20048;-78
2024/04/01 00:10:19;;;;;;;6.10;2.63;;;;;;;;;;5014108;28;20038;-78
2024/04/01 00:12:44;;;;;;;10.50;3.30;;;;;;;;;;4997727;28;20045;-78
2024/04/01 00:15:10;;;;;;;9.00;3.80;;;;;;;;;;4997593;28;20091;-78
2024/04/01 00:17:36;;;;;;;7.40;3.00;;;;;;;;;;4997762;28;20041;-77
2024/04/01 00:20:02;;;;;;;9.75;3.20;;;;;;;;;;5014104;28;20459;-77
2024/04/01 00:22:28;;;;;;;7.45;3.38;;;;;;;;;;4997393;28;20073;-78
2024/04/01 00:24:54;;;;;;;11.00;3.00;;;;;;;;;;4997796;28;20108;-77
2024/04/01 00:27:20;;;;;;;7.97;3.05;;;;;;;;;;5013362;28;20045;-78
2024/04/01 00:29:46;;;;;;;11.02;3.45;;;;;;;;;;4997728;28;20052;-78
2024/04/01 00:32:12;;;;;;;8.95;2.72;;;;;;;;;;5013374;28;20041;-78
2024/04/01 00:34:37;;;;;;;9.35;3.30;;;;;;;;;;4997547;28;20072;-78
2024/04/01 00:37:03;;;;;;;5.70;3.15;;;;;;;;;;4997433;28;20038;-78
2024/04/01 00:39:29;;;;;;;11.43;3.08;;;;;;;;;;5013509;28;20038;-78
2024/04/01 00:41:55;;;;;;;11.70;2.88;;;;;;;;;;4997722;28;20484;-78
2024/04/01 00:44:21;;;;;;;8.65;3.13;;;;;;;;;;4996943;28;20050;-78
2024/04/01 00:46:47;;;;;;;11.50;3.03;;;;;;;;;;5013421;28;20045;-78
2024/04/01 00:49:12;;;;;;;7.53;2.55;;;;;;;;;;5013256;28;20477;-78
2024/04/01 00:51:39;;;;;;;10.85;2.53;;;;;;;;;;4997273;28;20049;-78
2024/04/01 00:54:06;;;;;;;8.35;2.10;;;;;;;;;;5013144;28;20114;-78
2024/04/01 00:56:34;;;;;;;8.60;2.58;;;;;;;;;;4996777;28;20052;-78
2024/04/01 00:59:02;;;;;;;8.70;2.80;;;;;;;;;;4996881;28;20550;-78
2024/04/01 01:01:31;;;;;;;4.93;1.83;;;;;;;;;;5012877;28;20038;-78
2024/04/01 01:03:57;;;;;;;;;;;;;;;;;;4996881;28;20100;-78
2024/04/01 01:06:25;;;;;;;7.22;2.30;;;;;;;;;;5013097;28;19921;-78
2024/04/01 01:08:50;;;;;;;3.97;2.10;;;;;;;;;;5013219;28;20396;-77
2024/04/01 01:11:17;;;;;;;10.10;2.40;;;;;;;;;;4996544;28;20050;-78
2024/04/01 01:13:42;;;;;;;8.65;1.90;;;;;;;;;;4996949;28;20056;-78
2024/04/01 01:16:08;;;;;;;4.68;2.42;;;;;;;;;;5012522;28;20042;-78
2024/04/01 01:18:34;;;;;;;7.47;2.25;;;;;;;;;;5013140;28;20452;-78
2024/04/01 01:21:00;;;;;;;6.70;1.90;;;;;;;;;;4996589;28;20124;-78
2024/04/01 01:23:26;;;;;;;6.18;1.80;;;;;;;;;;5012415;28;20049;-78
2024/04/01 01:25:52;;;;;;;6.38;1.83;;;;;;;;;;4996541;28;20040;-78
2024/04/01 01:28:17;;;;;;;3.25;1.48;;;;;;;;;;5012446;28;20050;-78
2024/04/01 01:30:43;;;;;;;6.03;2.00;;;;;;;;;;5012790;28;20045;-78
2024/04/01 01:33:09;;;;;;;2.70;1.48;;;;;;;;;;5012375;28;20092;-78
2024/04/01 01:35:36;;;;;;;8.82;2.05;;;;;;;;;;4996451;28;20046;-78
2024/04/01 01:38:03;;;;;;;6.05;1.80;;;;;;;;;;4996599;28;20041;-78
2024/04/01 01:40:29;;;;;;;5.82;2.17;;;;;;;;;;5012705;28;20046;-78
2024/04/01 01:42:56;;;;;;;5.38;1.80;;;;;;;;;;4996400;28;20431;-78
2024/04/01 01:45:21;;;;;;;3.20;1.85;;;;;;;;;;5012150;28;20048;-78
2024/04/01 01:47:47;;;;;;;12.20;2.05;;;;;;;;;;5012761;28;20042;-78
2024/04/01 01:50:13;;;;;;;6.10;1.98;;;;;;;;;;4995729;28;20104;-78
2024/04/01 01:52:39;;;;;;;7.70;2.10;;;;;;;;;;5012496;28;20077;-78
2024/04/01 01:55:05;;;;;;;7.07;1.95;;;;;;;;;;5012183;28;20050;-78
2024/04/01 01:57:32;;;;;;;7.57;1.60;;;;;;;;;;5028779;28;20053;-78
2024/04/01 01:59:58;;;;;;;6.07;1.50;;;;;;;;;;4995861;28;20038;-78
2024/04/01 02:02:24;;;;;;;6.18;1.95;;;;;;;;;;5011975;28;20358;-78
2024/04/01 02:04:50;;;;;;;6.13;1.90;;;;;;;;;;5012102;28;20052;-78
2024/04/01 02:07:16;;;;;;;3.35;1.63;;;;;;;;;;4995511;28;20041;-78
2024/04/01 02:09:42;;;;;;;10.90;1.60;;;;;;;;;;5012200;28;20042;-78
2024/04/01 02:12:08;;;;;;;10.85;1.63;;;;;;;;;;4979174;28;20041;-78
2024/04/01 02:14:35;;;;;;;6.43;1.75;;;;;;;;;;5028558;28;20103;-78
2024/04/01 02:17:01;;;;;;;6.43;1.10;;;;;;;;;;5011258;28;20041;-78
2024/04/01 02:19:26;;;;;;;4.60;1.40;;;;;;;;;;5011734;28;20045;-78
2024/04/01 02:21:52;;;;;;;10.02;1.00;;;;;;;;;;4995614;28;20049;-78
2024/04/01 02:24:18;;;;;;;3.63;0.80;;;;;;;;;;4995361;28;20053;-78
2024/04/01 02:26:44;;;;;;;6.25;0.90;;;;;;;;;;5011697;28;20472;-78
2024/04/01 02:29:10;;;;;;;9.85;1.35;;;;;;;;;;4979013;28;20448;-77
2024/04/01 02:31:37;;;;;;;10.50;1.20;;;;;;;;;;4995643;28;20045;-78
2024/04/01 02:34:03;;;;;;;12.52;1.33;;;;;;;;;;5011855;28;20052;-77
2024/04/01 02:36:29;;;;;;;9.18;1.27;;;;;;;;;;5028153;28;20042;-78
2024/04/01 02:38:55;;;;;;;7.18;0.90;;;;;;;;;;5011768;28;20488;-78
2024/04/01 02:41:21;;;;;;;9.50;1.30;;;;;;;;;;5011599;28;20038;-78
2024/04/01 02:43:47;;;;;;;12.90;1.40;;;;;;;;;;4979400;28;20053;-78
2024/04/01 02:46:14;;;;;;;12.32;1.20;;;;;;;;;;5011382;28;20070;-79
2024/04/01 02:48:40;;;;;;;13.70;1.45;;;;;;;;;;4995382;28;20042;-78
2024/04/01 02:51:06;;;;;;;7.50;1.30;;;;;;;;;;4995167;28;20125;-79
2024/04/01 02:53:32;;;;;;;14.38;1.40;;;;;;;;;;4995339;28;20038;-78
2024/04/01 02:55:57;;;;;;;10.27;1.42;;;;;;;;;;4995479;28;20125;-78
2024/04/01 02:58:23;;;;;;;6.45;1.00;;;;;;;;;;5011443;28;20052;-78
2024/04/01 03:00:49;;;;;;;7.10;0.90;;;;;;;;;;5011334;28;20046;-78
2024/04/01 03:03:15;;;;;;;14.48;1.08;;;;;;;;;;4994928;28;20405;-78
2024/04/01 03:05:41;;;;;;;7.82;1.00;;;;;;;;;;5011439;28;20050;-78
2024/04/01 03:08:07;;;;;;;8.85;1.02;;;;;;;;;;4994784;28;20061;-78
2024/04/01 03:10:34;;;;;;;11.48;1.10;;;;;;;;;;5011715;28;20381;-78
2024/04/01 03:13:04;;;;;;;10.32;1.90;;;;;;;;;;5011642;28;20042;-78
2024/04/01 03:15:30;;;;;;;8.00;0.80;;;;;;;;;;5011488;28;20116;-77
2024/04/01 03:17:57;;;;;;;13.10;1.60;;;;;;;;;;5011297;28;20041;-78
2024/04/01 03:20:23;;;;;;;10.32;1.10;;;;;;;;;;5011188;28;20041;-78
2024/04/01 03:22:48;;;;;;;11.80;1.10;;;;;;;;;;5011398;28;20042;-78
2024/04/01 03:25:14;;;;;;;10.07;1.35;;;;;;;;;;5010929;28;20042;-78
2024/04/01 03:27:40;;;;;;;12.02;1.25;;;;;;;;;;4996408;28;20052;-78
2024/04/01 03:30:09;;;;;;;8.07;1.65;;;;;;;;;;5014587;28;20049;-78
2024/04/01 03:32:35;;;;;;;10.50;1.60;;;;;;;;;;5015067;28;20062;-77
2024/04/01 03:35:02;;;;;;;18.30;1.65;;;;;;;;;;4982572;28;20037;-77
2024/04/01 03:37:28;;;;;;;11.63;1.00;;;;;;;;;;5014622;28;20042;-77
2024/04/01 03:39:54;;;;;;;3.65;0.60;;;;;;;;;;4998602;28;20038;-78
2024/04/01 03:42:19;;;;;;;6.85;1.00;;;;;;;;;;5014619;28;20041;-78
2024/04/01 03:44:45;;;;;;;7.78;1.10;;;;;;;;;;5031331;28;20061;-78
2024/04/01 03:47:11;;;;;;;6.25;1.08;;;;;;;;;;5014316;28;20068;-78
2024/04/01 03:49:38;;;;;;;11.27;1.98;;;;;;;;;;5014861;28;20461;-78
2024/04/01 03:52:05;;;;;;;11.70;1.90;;;;;;;;;;4997701;28;20144;-77
2024/04/01 03:54:33;;;;;;;8.90;1.65;;;;;;;;;;4998101;28;20141;-78
2024/04/01 03:56:59;;;;;;;8.43;1.30;;;;;;;;;;5014705;28;20550;-78
2024/04/01 03:59:24;;;;;;;9.88;1.20;;;;;;;;;;5013954;28;20050;-78
2024/04/01 04:01:50;;;;;;;12.60;1.27;;;;;;;;;;4998129;28;20057;-78
2024/04/01 04:04:16;;;;;;;11.55;1.20;;;;;;;;;;4997705;28;20052;-78
2024/04/01 04:06:41;;;;;;;7.50;1.02;;;;;;;;;;4998147;28;20050;-78
2024/04/01 04:09:15;;;;;;;7.32;1.27;;;;;;;;;;4997748;28;20049;-78
2024/04/01 04:11:51;;;;;;;8.43;1.40;;;;;;;;;;4998236;28;20064;-78
2024/04/01 04:14:17;;;;;;;10.02;1.70;;;;;;;;;;5013950;28;20045;-78
2024/04/01 04:16:45;;;;;;;10.38;1.13;;;;;;;;;;5014329;28;20052;-77
2024/04/01 04:19:11;;;;;;;6.20;1.20;;;;;;;;;;4997494;28;20046;-78
2024/04/01 04:21:37;;;;;;;7.25;1.63;;;;;;;;;;4998043;28;20046;-78
2024/04/01 04:24:02;;;;;;;14.50;1.77;;;;;;;;;;5014084;28;20453;-77
2024/04/01 04:26:29;;;;;;;8.05;1.70;;;;;;;;;;5013440;28;20045;-78
2024/04/01 04:28:55;;;;;;;11.50;1.70;;;;;;;;;;4997399;28;20595;-78
2024/04/01 04:31:20;;;;;;;10.50;1.70;;;;;;;;;;4996997;28;20052;-78
2024/04/01 04:33:47;;;;;;;7.47;1.17;;;;;;;;;;5014018;28;20046;-78
2024/04/01 04:36:13;;;;;;;11.73;1.75;;;;;;;;;;5013570;28;20050;-78
2024/04/01 04:38:40;;;;;;;7.68;1.15;;;;;;;;;;5013157;28;20400;-78
2024/04/01 04:41:05;;;;;;;16.27;1.92;;;;;;;;;;4997066;28;20041;-78
2024/04/01 04:43:32;;;;;;;15.45;1.90;;;;;;;;;;5013769;28;20440;-78
2024/04/01 04:45:59;;;;;;;9.18;1.42;;;;;;;;;;5013497;28;20042;-78
2024/04/01 04:48:27;;;;;;;9.85;1.85;;;;;;;;;;5013423;28;20041;-79
2024/04/01 04:50:53;;;;;;;14.27;1.80;;;;;;;;;;4997275;28;20384;-77
2024/04/01 04:53:19;;;;;;;11.77;1.35;;;;;;;;;;5013091;28;20277;-78
2024/04/01 04:55:45;;;;;;;11.88;1.67;;;;;;;;;;4997217;28;20038;-77
2024/04/01 04:58:10;;;;;;;17.10;2.03;;;;;;;;;;5013041;28;20042;-78
2024/04/01 05:00:36;;;;;;;22.15;2.10;;;;;;;;;;4996864;28;20444;-78
2024/04/01 05:03:05;;;;;;;19.85;1.52;;;;;;;;;;4980890;28;20034;-77
2024/04/01 05:05:32;;;;;;;17.38;1.80;;;;;;;;;;4996528;28;20091;-79
2024/04/01 05:07:57;;;;;;;12.00;1.40;;;;;;;;;;5013210;28;20503;-78
2024/04/01 05:10:23;;;;;;;14.07;1.58;;;;;;;;;;4996818;28;20069;-78
2024/04/01 05:12:51;;;;;;;11.18;1.45;;;;;;;;;;4996894;28;20042;-78
2024/04/01 05:15:16;;;;;;;13.82;1.45;;;;;;;;;;4996391;28;20404;-78
2024/04/01 05:17:42;;;;;;;16.58;1.65;;;;;;;;;;5013068;28;20065;-78
2024/04/01 05:20:13;;;;;;;17.08;1.90;;;;;;;;;;5012601;28;20045;-78
2024/04/01 05:22:39;;;;;;;11.93;1.40;;;;;;;;;;5013139;28;20042;-78
2024/04/01 05:25:05;;;;;;;8.70;1.27;;;;;;;;;;5012610;28;20074;-77
2024/04/01 05:27:31;;;;;;;11.85;1.23;;;;;;;;;;4996246;28;20100;-78
2024/04/01 05:30:03;;;;;;;19.05;1.83;;;;;;;;;;5012930;28;20424;-78
2024/04/01 05:32:30;;;;;;;10.00;1.33;;;;;;;;;;5012382;28;20044;-78
2024/04/01 05:34:56;;;;;;;10.65;1.60;;;;;;;;;;4996495;28;20034;-78
2024/04/01 05:37:23;;;;;;;12.95;1.65;;;;;;;;;;4996191;28;20042;-78
2024/04/01 05:39:52;;;;;;;20.33;1.80;;;;;;;;;;5012917;28;20091;-78
2024/04/01 05:42:21;;;;;;;19.55;1.95;;;;;;;;;;5012150;28;20048;-78
2024/04/01 05:44:47;;;;;;;;;;;;;;;;;;4996466;28;20054;-78
2024/04/01 05:47:13;;;;;;;35.03;3.05;;;;;;;;;;5011781;28;19928;-78
2024/04/01 05:49:39;;;;;;;22.77;1.65;;;;;;;;;;5012579;28;20050;-78
2024/04/01 05:52:05;;;;;;;16.45;1.75;;;;;;;;;;5012042;28;20077;-78
2024/04/01 05:54:31;;;;;;;23.17;2.30;;;;;;;;;;5012481;28;20149;-78
2024/04/01 05:56:58;;;;;;;12.60;1.85;;;;;;;;;;5012567;28;20093;-78
2024/04/01 05:59:25;;;;;;;22.80;1.80;;;;;;;;;;4995331;28;20060;-78
2024/04/01 06:01:55;;;;;;;19.08;2.78;;;;;;;;;;5012292;28;20053;-78
2024/04/01 06:04:22;;;;;;;15.98;1.75;;;;;;;;;;4995657;28;20113;-79
2024/04/01 06:06:49;;;;;;;13.05;1.75;;;;;;;;;;4995852;28;20389;-80
2024/04/01 06:09:15;;;;;;;16.08;2.20;;;;;;;;;;4995765;28;20069;-78
2024/04/01 06:11:41;;;;;;;13.82;2.00;;;;;;;;;;4979616;28;20473;-78
2024/04/01 06:14:08;;;;;;;13.82;1.77;;;;;;;;;;5003922;28;20465;-78
2024/04/01 06:16:35;;;;;;;15.27;1.40;;;;;;;;;;4974237;28;20060;-78
2024/04/01 06:19:01;;;;;;;9.55;1.00;;;;;;;;;;5009542;28;20049;-78
2024/04/01 06:21:26;;;;;;;10.40;2.08;;;;;;;;;;5010517;28;20522;-78
2024/04/01 06:23:52;;;;;;;9.55;2.25;;;;;;;;;;4992883;28;20052;-78
2024/04/01 06:26:18;;;;;;;13.02;1.80;;;;;;;;;;4975979;28;20061;-78
2024/04/01 06:28:50;;;;;;;11.52;2.15;;;;;;;;;;4992190;28;20080;-78
2024/04/01 06:31:16;;;;;;;14.00;2.15;;;;;;;;;;4992843;28;20100;-78
2024/04/01 06:33:43;;;;;;;16.10;1.67;;;;;;;;;;4989322;28;20487;-77
2024/04/01 06:36:10;;;;;;;16.27;2.30;;;;;;;;;;5022333;28;20042;-78
2024/04/01 06:38:36;;;;;;;8.10;1.60;;;;;;;;;;5010081;28;20042;-78
2024/04/01 06:41:03;;;;;;;11.57;1.90;;;;;;;;;;5009158;28;20064;-78
2024/04/01 06:43:29;;;;;;;14.45;1.60;;;;;;;;;;5008254;28;20045;-77
2024/04/01 06:46:00;;;;;;;10.18;1.73;;;;;;;;;;4992465;28;20045;-78
2024/04/01 06:48:26;;;;;;;14.85;1.65;;;;;;;;;;5008517;28;20437;-78
2024/04/01 06:50:52;;;;;;;11.70;1.92;;;;;;;;;;4991989;28;20076;-79
2024/04/01 06:53:19;;;;;;;16.30;1.88;;;;;;;;;;5008249;28;20038;-77
2024/04/01 06:55:46;;;;;;;22.27;2.95;;;;;;;;;;5008359;28;20048;-78
2024/04/01 06:58:12;;;;;;;12.75;2.10;;;;;;;;;;5008449;28;20045;-78
2024/04/01 07:00:38;;;;;;;18.55;3.35;;;;;;;;;;5008245;28;20396;-78
2024/04/01 07:03:06;;;;;;;18.00;3.58;;;;;;;;;;5010432;28;20038;-78
2024/04/01 07:05:32;;;;;;;23.90;6.32;;;;;;;;;;5012253;28;20038;-78
2024/04/01 07:07:59;;;;;;;15.73;4.05;;;;;;;;;;5012394;28;20037;-78
2024/04/01 07:10:29;;;;;;;17.70;4.82;;;;;;;;;;5011866;28;20095;-78
2024/04/01 07:12:56;;;;;;;22.45;5.43;;;;;;;;;;5013167;28;20046;-78
2024/04/01 07:15:22;;;;;;;17.83;2.75;;;;;;;;;;4996623;28;20045;-78
2024/04/01 07:17:48;;;;;;;15.70;3.35;;;;;;;;;;4996759;28;20456;-79
2024/04/01 07:20:14;;;;;;;20.25;3.40;;;;;;;;;;5012847;28;20049;-78
2024/04/01 07:22:40;;;;;;;15.98;3.58;;;;;;;;;;4997261;28;20050;-78
2024/04/01 07:25:07;;;;;;;20.63;3.88;;;;;;;;;;5013573;28;20477;-78
2024/04/01 07:27:36;;;;;;;16.58;3.10;;;;;;;;;;5013117;28;20399;-80
2024/04/01 07:30:06;;;;;;;13.07;2.78;;;;;;;;;;4984929;28;20041;-79
2024/04/01 07:32:33;;;;;;;16.42;2.95;;;;;;;;;;5013093;28;20045;-82
2024/04/01 07:35:00;;;;;;;17.65;2.17;;;;;;;;;;5013066;28;20645;-80
2024/04/01 07:37:26;;;;;;;15.57;3.20;;;;;;;;;;5012391;28;20045;-79
2024/04/01 07:39:54;;;;;;;11.98;1.85;;;;;;;;;;5009614;28;20056;-79
2024/04/01 07:42:20;;;;;;;18.73;2.67;;;;;;;;;;5002975;28;20034;-80
2024/04/01 07:44:47;;;;;;;13.65;2.55;;;;;;;;;;5012273;28;20045;-78
2024/04/01 07:47:13;;;;;;;19.15;2.80;;;;;;;;;;5012610;28;20050;-79
2024/04/01 07:49:39;;;;;;;16.05;2.97;;;;;;;;;;5012891;28;20045;-78
2024/04/01 07:52:06;;;;;;;15.98;1.95;;;;;;;;;;4996615;28;20052;-78
2024/04/01 07:54:32;;;;;;;15.93;2.08;;;;;;;;;;5026119;28;20072;-79
2024/04/01 07:57:03;;;;;;;15.82;2.72;;;;;;;;;;4996788;28;20087;-78
2024/04/01 07:59:33;;;;;;;14.02;2.42;;;;;;;;;;5012490;28;20038;-79
2024/04/01 08:02:03;;;;;;;9.80;2.03;;;;;;;;;;5012759;28;20046;-79
2024/04/01 08:04:29;;;;;;;15.88;2.65;;;;;;;;;;5012388;28;20042;-79
2024/04/01 08:06:55;;;;;;;13.38;2.00;;;;;;;;;;5012726;28;20134;-79
2024/04/01 08:09:21;;;;;;;21.10;1.80;;;;;;;;;;5012302;28;20489;-79
2024/04/01 08:11:48;;;;;;;12.13;2.42;;;;;;;;;;5012764;28;20046;-79
2024/04/01 08:14:14;;;;;;;15.88;2.90;;;;;;;;;;5010984;28;20041;-79
2024/04/01 08:16:42;;;;;;;14.55;2.25;;;;;;;;;;5012811;28;20050;-78
2024/04/01 08:19:08;;;;;;;12.02;2.25;;;;;;;;;;5012071;28;20040;-80
2024/04/01 08:21:33;;;;;;;12.98;2.05;;;;;;;;;;5012607;28;20046;-81
2024/04/01 08:23:59;;;;;;;12.90;2.13;;;;;;;;;;4980185;28;20038;-79
2024/04/01 08:26:24;;;;;;;11.38;1.73;;;;;;;;;;5011828;28;20057;-78
2024/04/01 08:28:51;;;;;;;18.20;2.05;;;;;;;;;;4996091;28;20133;-79
2024/04/01 08:31:17;;;;;;;17.70;2.53;;;;;;;;;;5011752;28;20046;-79
2024/04/01 08:33:42;;;;;;;15.30;1.77;;;;;;;;;;4996270;28;20132;-79
2024/04/01 08:36:08;;;;;;;21.83;2.63;;;;;;;;;;5000126;28;20050;-79
2024/04/01 08:38:33;;;;;;;15.55;2.42;;;;;;;;;;5011972;28;20053;-82
2024/04/01 08:41:08;;;;;;;12.25;2.00;;;;;;;;;;5009018;28;20050;-79
2024/04/01 08:43:44;;;;;;;18.05;2.67;;;;;;;;;;4991929;28;20046;-78
2024/04/01 08:46:11;;;;;;;15.80;2.60;;;;;;;;;;5007393;28;20038;-78
2024/04/01 08:48:42;;;;;;;15.10;2.70;;;;;;;;;;5010009;28;20046;-78
2024/04/01 08:51:10;;;;;;;16.90;2.47;;;;;;;;;;4993405;28;20056;-78
2024/04/01 08:53:55;;;;;;;15.73;2.17;;;;;;;;;;5010179;28;20072;-78
2024/04/01 08:56:21;;;;;;;16.20;2.78;;;;;;;;;;5008413;28;20048;-79
2024/04/01 08:58:47;;;;;;;12.88;1.98;;;;;;;;;;5009739;28;20049;-78
2024/04/01 09:01:12;;;;;;;17.48;2.67;;;;;;;;;;4992900;28;20053;-78
2024/04/01 09:03:38;;;;;;;16.65;3.00;;;;;;;;;;4993781;28;20473;-78
2024/04/01 09:06:04;;;;;;;13.27;2.85;;;;;;;;;;4991188;28;20099;-78
2024/04/01 09:08:31;;;;;;;19.23;2.92;;;;;;;;;;4993222;28;20038;-79
2024/04/01 09:10:56;;;;;;;18.45;2.55;;;;;;;;;;5009747;28;20038;-78
2024/04/01 09:13:22;;;;;;;23.77;3.30;;;;;;;;;;4992359;28;20042;-78
2024/04/01 09:15:48;;;;;;;25.08;3.47;;;;;;;;;;4993220;28;20037;-78
2024/04/01 09:18:15;;;;;;;15.93;2.78;;;;;;;;;;5008699;28;20476;-78
2024/04/01 09:20:42;;;;;;;18.60;2.65;;;;;;;;;;5009364;28;20042;-78
2024/04/01 09:23:09;;;;;;;14.75;2.78;;;;;;;;;;5008988;28;20034;-78
2024/04/01 09:25:35;;;;;;;23.75;2.50;;;;;;;;;;5008872;28;20156;-78
2024/04/01 09:28:01;;;;;;;21.35;3.17;;;;;;;;;;4993040;28;20392;-78
2024/04/01 09:30:27;;;;;;;20.85;2.80;;;;;;;;;;4976423;28;20049;-78
2024/04/01 09:32:53;;;;;;;18.60;3.63;;;;;;;;;;5008926;28;20101;-83
2024/04/01 09:35:22;;;;;;;16.60;2.88;;;;;;;;;;4976198;28;20053;-78
2024/04/01 09:37:49;;;;;;;6.55;1.33;;;;;;;;;;4990776;28;20095;-76
2024/04/01 09:40:16;;;;;;;4.72;1.35;;;;;;;;;;5008424;28;20052;-78
2024/04/01 09:42:42;;;;;;;5.07;0.73;;;;;;;;;;5008460;28;20050;-81
2024/04/01 09:45:08;;;;;;;6.90;0.98;;;;;;;;;;5008205;28;20060;-79
2024/04/01 09:47:37;;;;;;;4.05;0.88;;;;;;;;;;5008943;28;20041;-76
2024/04/01 09:50:07;;;;;;;4.88;0.93;;;;;;;;;;5008749;28;20050;-79
2024/04/01 09:52:36;;;;;;;3.45;0.77;;;;;;;;;;5006121;28;20049;-77
2024/04/01 09:55:04;;;;;;;;;;;;;;;;;;5008777;28;20476;-77
2024/04/01 09:57:51;;;;;;;6.47;2.13;;;;;;;;;;5005700;28;20314;-77
2024/04/01 10:00:18;;;;;;;16.95;9.73;;;;;;;;;;4989155;28;20060;-77
2024/04/01 10:03:09;;;;;;;14.90;5.50;;;;;;;;;;4988635;28;20054;-77
2024/04/01 10:06:00;;;;;;;7.13;2.50;;;;;;;;;;5004687;28;20042;-78
2024/04/01 10:08:55;;;;;;;6.80;1.33;;;;;;;;;;4987723;28;20152;-78
2024/04/01 10:11:50;;;;;;;6.50;1.40;;;;;;;;;;5005258;28;20371;-77
2024/04/01 10:14:43;;;;;;;9.63;3.92;;;;;;;;;;5006666;28;20046;-77
2024/04/01 10:17:36;;;;;;;16.15;5.45;;;;;;;;;;4988321;28;20054;-76
2024/04/01 10:20:11;;;;;;;13.77;4.45;;;;;;;;;;5005417;28;20046;-77
2024/04/01 10:23:14;;;;;;;17.90;2.88;;;;;;;;;;5005948;28;20049;-77
2024/04/01 10:26:18;;;;;;;18.15;2.85;;;;;;;;;;5005718;28;20042;-77
2024/04/01 10:28:46;;;;;;;10.60;1.73;;;;;;;;;;4990384;28;20046;-77
2024/04/01 10:31:30;;;;;;;17.67;2.53;;;;;;;;;;5005251;28;20050;-77
2024/04/01 10:34:08;;;;;;;20.67;2.60;;;;;;;;;;5005708;28;20042;-77
2024/04/01 10:37:01;;;;;;;25.38;3.55;;;;;;;;;;5005517;28;20434;-77
2024/04/01 10:39:49;;;;;;;18.55;3.55;;;;;;;;;;5004397;28;20046;-78
2024/04/01 10:42:42;;;;;;;21.08;2.97;;;;;;;;;;5005305;28;20495;-77
2024/04/01 10:45:49;;;;;;;18.33;3.03;;;;;;;;;;5005540;28;20046;-77
2024/04/01 10:48:16;;;;;;;20.45;3.47;;;;;;;;;;4962257;28;20053;-77
2024/04/01 10:50:42;;;;;;;9.48;1.55;;;;;;;;;;4976961;28;20054;-80
2024/04/01 10:53:08;;;;;;;8.88;1.90;;;;;;;;;;4961611;28;20121;-77
2024/04/01 10:56:07;;;;;;;6.65;1.77;;;;;;;;;;4975475;28;20560;-77
2024/04/01 10:58:45;;;;;;;6.53;1.40;;;;;;;;;;4970329;28;20436;-77
2024/04/01 11:01:39;;;;;;;5.25;1.00;;;;;;;;;;4966553;28;20061;-77
2024/04/01 11:04:46;;;;;;;5.45;1.00;;;;;;;;;;4970160;28;20043;-77
2024/04/01 11:08:06;;;;;;;4.00;1.10;;;;;;;;;;4929552;29;20077;-77
2024/04/01 11:10:49;;;;;;;4.40;1.10;;;;;;;;;;4894413;29;20052;-77
2024/04/01 11:13:18;;;;;;;7.68;1.27;;;;;;;;;;4901730;29;20049;-80
2024/04/01 11:15:44;;;;;;;7.55;1.48;;;;;;;;;;4880617;29;20074;-77
2024/04/01 11:18:37;;;;;;;10.45;1.50;;;;;;;;;;4883804;29;20056;-77
2024/04/01 11:21:19;;;;;;;14.57;1.52;;;;;;;;;;4878317;29;20488;-77
2024/04/01 11:23:57;;;;;;;20.00;2.75;;;;;;;;;;4877684;29;20055;-77
2024/04/01 11:26:44;;;;;;;16.43;2.70;;;;;;;;;;4891104;29;21186;-78
2024/04/01 11:29:31;;;;;;;20.25;2.58;;;;;;;;;;4876914;29;20304;-78
2024/04/01 11:32:03;;;;;;;27.05;3.13;;;;;;;;;;4893417;29;20054;-78
2024/04/01 11:34:48;;;;;;;17.65;2.45;;;;;;;;;;4885534;29;20053;-77
2024/04/01 11:37:28;;;;;;;15.90;1.90;;;;;;;;;;4877176;29;20053;-77
2024/04/01 11:40:00;;;;;;;20.58;3.92;;;;;;;;;;4877859;29;20480;-77
2024/04/01 11:42:29;;;;;;;18.98;2.92;;;;;;;;;;4892866;29;20456;-77
2024/04/01 11:44:58;;;;;;;20.27;5.53;;;;;;;;;;4982379;28;20501;-80
2024/04/01 11:47:25;;;;;;;16.20;5.10;;;;;;;;;;4981574;28;20046;-77
2024/04/01 11:49:50;;;;;;;19.60;3.13;;;;;;;;;;4997241;28;20050;-78
2024/04/01 11:52:18;;;;;;;14.27;4.45;;;;;;;;;;4983936;28;20050;-78
2024/04/01 11:54:44;;;;;;;20.42;3.58;;;;;;;;;;4982842;28;20053;-81
2024/04/01 11:57:32;;;;;;;15.32;2.70;;;;;;;;;;4991220;28;20038;-77
2024/04/01 12:00:09;;;;;;;14.20;3.25;;;;;;;;;;4981439;28;20048;-78
2024/04/01 12:02:35;;;;;;;16.95;3.17;;;;;;;;;;4996182;28;20049;-81
2024/04/01 12:05:05;;;;;;;19.50;3.25;;;;;;;;;;5002273;28;20037;-78
2024/04/01 12:07:32;;;;;;;24.50;2.95;;;;;;;;;;4988416;28;20042;-77
2024/04/01 12:10:04;;;;;;;20.10;2.60;;;;;;;;;;5006104;28;20061;-77
2024/04/01 12:12:32;;;;;;;18.10;2.20;;;;;;;;;;5012655;28;20041;-77
2024/04/01 12:15:01;;;;;;;12.23;1.87;;;;;;;;;;4995704;28;20046;-77
2024/04/01 12:17:28;;;;;;;15.18;1.52;;;;;;;;;;4995270;28;20635;-77
2024/04/01 12:19:57;;;;;;;6.28;1.23;;;;;;;;;;4995548;28;21626;-77
2024/04/01 12:22:24;;;;;;;6.13;1.25;;;;;;;;;;5011887;28;20392;-78
2024/04/01 12:24:51;;;;;;;4.00;0.80;;;;;;;;;;4996421;28;20040;-77
2024/04/01 12:27:17;;;;;;;2.80;0.30;;;;;;;;;;4995497;28;20050;-78
2024/04/01 12:29:43;;;;;;;2.92;0.70;;;;;;;;;;5013544;28;20048;-77
2024/04/01 12:32:09;;;;;;;4.38;0.77;;;;;;;;;;4996207;28;20391;-77
2024/04/01 12:34:41;;;;;;;4.88;0.77;;;;;;;;;;5013568;28;20136;-77
2024/04/01 12:37:08;;;;;;;4.85;1.02;;;;;;;;;;5013390;28;20045;-78
2024/04/01 12:39:42;;;;;;;4.57;1.63;;;;;;;;;;4997570;28;20050;-77
2024/04/01 12:42:10;;;;;;;7.82;1.20;;;;;;;;;;5012860;28;20038;-77
2024/04/01 12:44:37;;;;;;;9.98;1.65;;;;;;;;;;5012150;28;20046;-77
2024/04/01 12:47:04;;;;;;;17.42;1.77;;;;;;;;;;4997566;28;20448;-77
2024/04/01 12:49:32;;;;;;;13.55;3.60;;;;;;;;;;5010234;28;20439;-77
2024/04/01 12:51:59;;;;;;;9.05;2.15;;;;;;;;;;5005451;28;20034;-81
2024/04/01 12:54:49;;;;;;;11.77;1.55;;;;;;;;;;5002918;28;20041;-77
2024/04/01 12:57:31;;;;;;;12.35;2.00;;;;;;;;;;4987314;28;20056;-78
2024/04/01 13:00:07;;;;;;;16.10;2.50;;;;;;;;;;4965886;28;20050;-78
2024/04/01 13:02:58;;;;;;;12.32;2.63;;;;;;;;;;5009899;28;20050;-78
2024/04/01 13:05:41;;;;;;;17.15;2.60;;;;;;;;;;5008681;28;20129;-78
2024/04/01 13:08:23;;;;;;;18.25;2.58;;;;;;;;;;5003787;28;20044;-77
2024/04/01 13:10:59;;;;;;;16.67;2.10;;;;;;;;;;5001069;28;20046;-77
2024/04/01 13:13:43;;;;;;;18.80;1.90;;;;;;;;;;4991876;28;20061;-78
2024/04/01 13:16:29;;;;;;;18.42;2.13;;;;;;;;;;5006129;28;20046;-78
2024/04/01 13:18:55;;;;;;;17.33;2.75;;;;;;;;;;4988590;28;20050;-78
2024/04/01 13:21:30;;;;;;;27.27;3.63;;;;;;;;;;5010580;28;20065;-77
2024/04/01 13:24:11;;;;;;;22.83;5.13;;;;;;;;;;4994819;28;20392;-78
2024/04/01 13:27:32;;;;;;;15.20;2.97;;;;;;;;;;5009999;28;20045;-78
2024/04/01 13:30:14;;;;;;;17.33;3.63;;;;;;;;;;4957135;28;20410;-78
2024/04/01 13:33:00;;;;;;;24.38;3.60;;;;;;;;;;4972558;28;20061;-78
2024/04/01 13:36:14;;;;;;;24.35;5.07;;;;;;;;;;4973450;28;20052;-78
2024/04/01 13:38:52;;;;;;;26.33;3.78;;;;;;;;;;4949097;28;20046;-77
2024/04/01 13:41:40;;;;;;;18.85;4.03;;;;;;;;;;4985852;28;20047;-78
2024/04/01 13:44:18;;;;;;;;;;;;;;;;;;4948865;28;20053;-78
2024/04/01 13:46:49;;;;;;;24.70;3.00;;;;;;;;;;4955364;28;19925;-77
2024/04/01 13:49:30;;;;;;;20.38;4.20;;;;;;;;;;4954967;28;20055;-78
2024/04/01 13:51:56;;;;;;;22.10;3.63;;;;;;;;;;5005230;28;20081;-77
2024/04/01 13:54:35;;;;;;;19.20;3.00;;;;;;;;;;4972993;28;20097;-78
2024/04/01 13:57:31;;;;;;;23.05;3.90;;;;;;;;;;4957192;28;20437;-78
2024/04/01 14:00:07;;;;;;;26.83;4.45;;;;;;;;;;4955707;28;20042;-77
2024/04/01 14:02:32;;;;;;;30.83;4.72;;;;;;;;;;4997581;28;20043;-78
2024/04/01 14:05:24;;;;;;;27.60;4.95;;;;;;;;;;5035236;28;20049;-77
2024/04/01 14:08:12;;;;;;;22.25;3.60;;;;;;;;;;4936443;28;20588;-77
2024/04/01 14:10:54;;;;;;;20.08;3.35;;;;;;;;;;4962662;28;20053;-77
2024/04/01 14:13:39;;;;;;;32.55;4.80;;;;;;;;;;4935326;28;20053;-77
2024/04/01 14:16:21;;;;;;;20.25;4.10;;;;;;;;;;4950310;28;20069;-78
2024/04/01 14:19:00;;;;;;;23.83;3.83;;;;;;;;;;4955811;28;20046;-77
2024/04/01 14:21:26;;;;;;;26.38;3.55;;;;;;;;;;4953763;28;20056;-77
2024/04/01 14:23:52;;;;;;;25.83;4.57;;;;;;;;;;4961000;28;20046;-77
2024/04/01 14:26:18;;;;;;;26.08;3.50;;;;;;;;;;4960729;28;20038;-82
2024/04/01 14:28:44;;;;;;;26.15;4.13;;;;;;;;;;4960971;28;20077;-78
2024/04/01 14:31:10;;;;;;;28.45;4.35;;;;;;;;;;4944608;28;20055;-78
2024/04/01 14:33:36;;;;;;;37.38;4.15;;;;;;;;;;4960820;28;20053;-77
2024/04/01 14:36:02;;;;;;;32.20;4.20;;;;;;;;;;4962248;28;20125;-78
2024/04/01 14:38:28;;;;;;;24.67;3.47;;;;;;;;;;4961416;28;20398;-78
2024/04/01 14:40:54;;;;;;;26.13;4.18;;;;;;;;;;4957855;28;20047;-78
2024/04/01 14:43:20;;;;;;;19.35;3.45;;;;;;;;;;4956021;28;20375;-78
2024/04/01 14:45:46;;;;;;;25.98;4.45;;;;;;;;;;5008287;28;20148;-76
2024/04/01 14:48:14;;;;;;;24.75;3.47;;;;;;;;;;5013061;28;20072;-77
2024/04/01 14:50:41;;;;;;;25.02;3.38;;;;;;;;;;5020233;28;20043;-80
2024/04/01 14:53:08;;;;;;;20.02;3.17;;;;;;;;;;4970355;28;20077;-79